Terminal Aerodrome Forecast
Issued by NWS Dallas/Fort Worth, TX

Home | Current Version | Previous Version | Text Only | Print | Product List | Glossary On
Versions: 1 2 3 4 5 6 7 8 9 10 11 12 13 14 15 16 17 18 19 20 21 22 23 24 25 26
000
FTUS44 KFWD 230520
TAFDFW
TAF
KDFW 230520Z 2306/2412 14011KT P6SM SKC
     FM231000 16012KT P6SM BKN012
     FM231600 17019G29KT P6SM SCT030
     FM240800 19017KT P6SM OVC015
     FM241100 19016KT P6SM VCSH OVC025=

USA.gov is the U.S. government's official web portal to all federal, state and local government web resources and services.